This is the latest recevied weather packets stored in our database for station/object URMM. If no packets are shown the sender has not sent any weather packets the latest 10 day(s).
| Time | Temp. | Humidity | Pressure | Rain* | Wind** | Luminosity | Snow |
|---|---|---|---|---|---|---|---|
| 1777231862 | 10.56° C | 66% | 1010 hPa | - | - | - | - |
| 1777228261 | 12.78° C | 58% | 1010 hPa | - | - | - | - |
| 1777222861 | 13.89° C | 58% | 1010 hPa | - | - | - | - |
| 1777221061 | 15.56° C | 47% | 1011 hPa | - | - | - | - |
| 1777219260 | 16.67° C | 45% | 1011 hPa | - | - | - | - |
| 1777215660 | 18.89° C | 37% | 1011 hPa | - | - | - | - |
| 1777213862 | 18.89° C | 39% | 1011 hPa | - | - | - | - |
| 1777210261 | 18.89° C | 39% | 1012 hPa | - | - | - | - |
| 1777208462 | 18.89° C | 39% | 1012 hPa | - | - | - | - |
| 1777206660 | 18.89° C | 42% | 1012 hPa | - | - | - | - |
| 1777204862 | 18.89° C | 37% | 1013 hPa | - | - | - | - |
| 1777203060 | 18.89° C | 37% | 1013 hPa | - | - | - | - |
| 1777201261 | 18.89° C | 37% | 1014 hPa | - | - | - | - |
| 1777199460 | 18.89° C | 34% | 1014 hPa | - | - | - | - |
| 1777197663 | 17.78° C | 36% | 1014 hPa | - | - | - | - |
| 1777194062 | 17.78° C | 39% | 1015 hPa | - | - | - | - |
| 1777192264 | 17.78° C | 36% | 1015 hPa | - | - | - | - |
| 1777190463 | 17.78° C | 39% | 1016 hPa | - | - | - | - |
| 1777188662 | 16.67° C | 45% | 1016 hPa | - | - | - | - |
| 1777186861 | 15.56° C | 55% | 1016 hPa | - | - | - | - |
| 1777185063 | 13.89° C | 54% | 1017 hPa | - | - | - | - |
| 1777183260 | 11.67° C | 66% | 1017 hPa | - | - | - | - |
| 1777181461 | 10° C | 71% | 1017 hPa | - | - | - | - |
| 1777179661 | 6.67° C | 81% | 1018 hPa | - | - | - | - |
| 1777177861 | 5° C | 86% | 1018 hPa | - | - | - | - |
* Rain since midnight (hover to see other rain measurements)
** Current wind speed in m/s (hover to see current wind gust speed)